KFY1069 SSBN-SSTE
Flight info
| Callsign | KFY1069 |
|---|---|
| Flight time | 0h 45m |
| Altitude | 2000 |
| Route | REA 3006S05044W 2959S05018W 2945S05001W 2927S04942W |
| Aircraft | B58T/L-BDFGLORY/C |
Departure
| Time | 2026-05-07 20:05 |
|---|---|
| Airport | Belém Novo Airport (SSBN) |
Arrival
| Time | 2026-05-07 20:50 |
|---|---|
| Airport | Torres Airport (SSTE) |
| Time | Latitude | Longitude | Altitude | Speed | Heading |
|---|---|---|---|---|---|
| 2026-05-07 20:00 | -30.18749 | -51.18078 | 11 ft | 0 kts | 70° |
| 2026-05-07 20:02 | -30.18749 | -51.18076 | 11 ft | 2 kts | 84° |
| 2026-05-07 20:02 | -30.18748 | -51.18018 | 11 ft | 11 kts | 70° |
| 2026-05-07 20:02 | -30.18718 | -51.17914 | 11 ft | 16 kts | 71° |
| 2026-05-07 20:02 | -30.18693 | -51.17825 | 11 ft | 10 kts | 73° |
| 2026-05-07 20:03 | -30.18679 | -51.17741 | 11 ft | 12 kts | 110° |
| 2026-05-07 20:03 | -30.18689 | -51.17716 | 11 ft | 0 kts | 118° |
| 2026-05-07 20:03 | -30.18712 | -51.17690 | 11 ft | 9 kts | 158° |
| 2026-05-07 20:03 | -30.18729 | -51.17641 | 12 ft | 6 kts | 197° |
| 2026-05-07 20:04 | -30.18735 | -51.17664 | 12 ft | 0 kts | 249° |
| 2026-05-07 20:04 | -30.18772 | -51.17789 | 10 ft | 53 kts | 250° |
| 2026-05-07 20:04 | -30.18970 | -51.18457 | 29 ft | 114 kts | 255° |
| 2026-05-07 20:05 | -30.19257 | -51.19398 | 225 ft | 133 kts | 255° |
| 2026-05-07 20:05 | -30.19652 | -51.20406 | 480 ft | 142 kts | 248° |
| 2026-05-07 20:05 | -30.20080 | -51.21444 | 722 ft | 143 kts | 250° |
| 2026-05-07 20:05 | -30.20500 | -51.22505 | 967 ft | 148 kts | 252° |
| 2026-05-07 20:06 | -30.20943 | -51.23582 | 1207 ft | 146 kts | 264° |
| 2026-05-07 20:06 | -30.20752 | -51.24606 | 1454 ft | 129 kts | 317° |
| 2026-05-07 20:06 | -30.19945 | -51.24884 | 1707 ft | 129 kts | 9° |
| 2026-05-07 20:06 | -30.19279 | -51.24149 | 1962 ft | 148 kts | 58° |
| 2026-05-07 20:07 | -30.18984 | -51.22945 | 2010 ft | 162 kts | 65° |
| 2026-05-07 20:07 | -30.18704 | -51.21676 | 2017 ft | 158 kts | 65° |
| 2026-05-07 20:07 | -30.18437 | -51.20424 | 2014 ft | 164 kts | 65° |
| 2026-05-07 20:07 | -30.18166 | -51.19153 | 2012 ft | 167 kts | 65° |
| 2026-05-07 20:08 | -30.17874 | -51.17843 | 2016 ft | 168 kts | 62° |
| 2026-05-07 20:08 | -30.17518 | -51.16556 | 2013 ft | 168 kts | 61° |
| 2026-05-07 20:08 | -30.17154 | -51.15267 | 2015 ft | 170 kts | 61° |
| 2026-05-07 20:08 | -30.16797 | -51.13964 | 2014 ft | 170 kts | 62° |
| 2026-05-07 20:09 | -30.16444 | -51.12669 | 2016 ft | 169 kts | 61° |
| 2026-05-07 20:09 | -30.16087 | -51.11342 | 2011 ft | 176 kts | 62° |
| 2026-05-07 20:09 | -30.15685 | -51.09998 | 1992 ft | 175 kts | 60° |
| 2026-05-07 20:10 | -30.14809 | -51.07402 | 2013 ft | 173 kts | 58° |
| 2026-05-07 20:10 | -30.14377 | -51.06115 | 2019 ft | 171 kts | 57° |
| 2026-05-07 20:10 | -30.13970 | -51.04819 | 2018 ft | 173 kts | 58° |
| 2026-05-07 20:10 | -30.13549 | -51.03523 | 2013 ft | 172 kts | 58° |
| 2026-05-07 20:11 | -30.13136 | -51.02240 | 2010 ft | 169 kts | 59° |
| 2026-05-07 20:11 | -30.12730 | -51.00985 | 2008 ft | 166 kts | 59° |
| 2026-05-07 20:11 | -30.12293 | -50.99753 | 2008 ft | 167 kts | 58° |
| 2026-05-07 20:11 | -30.11869 | -50.98506 | 2014 ft | 167 kts | 58° |
| 2026-05-07 20:12 | -30.11447 | -50.97243 | 2019 ft | 169 kts | 58° |
| 2026-05-07 20:12 | -30.11018 | -50.95973 | 2024 ft | 171 kts | 58° |
| 2026-05-07 20:12 | -30.10598 | -50.94685 | 2019 ft | 171 kts | 59° |
| 2026-05-07 20:12 | -30.10166 | -50.93413 | 2016 ft | 170 kts | 58° |
| 2026-05-07 20:13 | -30.10096 | -50.91996 | 2027 ft | 189 kts | 95° |
| 2026-05-07 20:13 | -30.10368 | -50.90522 | 2026 ft | 185 kts | 90° |
| 2026-05-07 20:13 | -30.10468 | -50.89076 | 2030 ft | 178 kts | 82° |
| 2026-05-07 20:13 | -30.10471 | -50.87650 | 2009 ft | 177 kts | 83° |
| 2026-05-07 20:14 | -30.10425 | -50.86239 | 2015 ft | 176 kts | 79° |
| 2026-05-07 20:14 | -30.10370 | -50.84827 | 2018 ft | 176 kts | 79° |
| 2026-05-07 20:14 | -30.10315 | -50.83408 | 2024 ft | 177 kts | 79° |
| 2026-05-07 20:14 | -30.10257 | -50.81983 | 2027 ft | 178 kts | 79° |
| 2026-05-07 20:15 | -30.10197 | -50.80557 | 2030 ft | 177 kts | 79° |
| 2026-05-07 20:15 | -30.10131 | -50.79139 | 2027 ft | 177 kts | 79° |
| 2026-05-07 20:15 | -30.10067 | -50.77727 | 2030 ft | 176 kts | 79° |
| 2026-05-07 20:15 | -30.10021 | -50.76312 | 2036 ft | 178 kts | 82° |
| 2026-05-07 20:16 | -30.10015 | -50.74873 | 2037 ft | 180 kts | 82° |
| 2026-05-07 20:16 | -30.10010 | -50.73431 | 2043 ft | 179 kts | 80° |
| 2026-05-07 20:16 | -30.09825 | -50.72040 | 2028 ft | 172 kts | 69° |
| 2026-05-07 20:16 | -30.09514 | -50.70735 | 2039 ft | 167 kts | 64° |
| 2026-05-07 20:17 | -30.09172 | -50.69447 | 2034 ft | 168 kts | 64° |
| 2026-05-07 20:17 | -30.08824 | -50.68149 | 2044 ft | 170 kts | 64° |
| 2026-05-07 20:17 | -30.08467 | -50.66837 | 2045 ft | 172 kts | 63° |
| 2026-05-07 20:17 | -30.08080 | -50.65527 | 2047 ft | 173 kts | 62° |
| 2026-05-07 20:18 | -30.07690 | -50.64220 | 2042 ft | 171 kts | 64° |
| 2026-05-07 20:18 | -30.07277 | -50.62942 | 2044 ft | 170 kts | 63° |
| 2026-05-07 20:18 | -30.06910 | -50.61659 | 2044 ft | 171 kts | 65° |
| 2026-05-07 20:18 | -30.06538 | -50.60350 | 2043 ft | 172 kts | 64° |
| 2026-05-07 20:19 | -30.06179 | -50.59040 | 2046 ft | 171 kts | 65° |
| 2026-05-07 20:19 | -30.05822 | -50.57731 | 2044 ft | 171 kts | 65° |
| 2026-05-07 20:19 | -30.05466 | -50.56420 | 2047 ft | 171 kts | 65° |
| 2026-05-07 20:19 | -30.05114 | -50.55101 | 2049 ft | 172 kts | 65° |
| 2026-05-07 20:20 | -30.04749 | -50.53789 | 2048 ft | 171 kts | 64° |
| 2026-05-07 20:20 | -30.04372 | -50.52485 | 2050 ft | 171 kts | 64° |
| 2026-05-07 20:20 | -30.03994 | -50.51187 | 2047 ft | 170 kts | 63° |
| 2026-05-07 20:20 | -30.03648 | -50.49872 | 2050 ft | 172 kts | 66° |
| 2026-05-07 20:21 | -30.03330 | -50.48535 | 2053 ft | 174 kts | 66° |
| 2026-05-07 20:21 | -30.03010 | -50.47188 | 2052 ft | 174 kts | 67° |
| 2026-05-07 20:21 | -30.02669 | -50.45849 | 2056 ft | 174 kts | 66° |
| 2026-05-07 20:21 | -30.02322 | -50.44514 | 2055 ft | 173 kts | 66° |
| 2026-05-07 20:22 | -30.01979 | -50.43185 | 2052 ft | 173 kts | 65° |
| 2026-05-07 20:22 | -30.01648 | -50.41847 | 2052 ft | 173 kts | 67° |
| 2026-05-07 20:22 | -30.01278 | -50.40538 | 2053 ft | 171 kts | 65° |
| 2026-05-07 20:22 | -30.00898 | -50.39242 | 2054 ft | 170 kts | 65° |
| 2026-05-07 20:23 | -30.00516 | -50.37957 | 2058 ft | 169 kts | 65° |
| 2026-05-07 20:23 | -30.00138 | -50.36673 | 2064 ft | 170 kts | 65° |
| 2026-05-07 20:23 | -29.99754 | -50.35380 | 2068 ft | 171 kts | 65° |
| 2026-05-07 20:23 | -29.99376 | -50.34072 | 2067 ft | 172 kts | 66° |
| 2026-05-07 20:24 | -29.99013 | -50.32766 | 2069 ft | 170 kts | 66° |
| 2026-05-07 20:24 | -29.98653 | -50.31471 | 2070 ft | 169 kts | 65° |
| 2026-05-07 20:24 | -29.98302 | -50.30173 | 2071 ft | 170 kts | 66° |
| 2026-05-07 20:24 | -29.97892 | -50.28913 | 2067 ft | 165 kts | 54° |
| 2026-05-07 20:25 | -29.97238 | -50.27841 | 2068 ft | 163 kts | 46° |
| 2026-05-07 20:25 | -29.96532 | -50.26819 | 2070 ft | 163 kts | 45° |
| 2026-05-07 20:25 | -29.95784 | -50.25846 | 2070 ft | 162 kts | 41° |
| 2026-05-07 20:25 | -29.95005 | -50.24907 | 2071 ft | 162 kts | 40° |
| 2026-05-07 20:26 | -29.94227 | -50.23978 | 2074 ft | 160 kts | 40° |
| 2026-05-07 20:26 | -29.93445 | -50.23060 | 2078 ft | 160 kts | 40° |
| 2026-05-07 20:26 | -29.92659 | -50.22158 | 2081 ft | 160 kts | 40° |
| 2026-05-07 20:26 | -29.91868 | -50.21249 | 2082 ft | 161 kts | 39° |
| 2026-05-07 20:27 | -29.91073 | -50.20330 | 2080 ft | 163 kts | 40° |
| 2026-05-07 20:27 | -29.90275 | -50.19402 | 2067 ft | 162 kts | 42° |
| 2026-05-07 20:27 | -29.89478 | -50.18495 | 2069 ft | 160 kts | 40° |
| 2026-05-07 20:27 | -29.88686 | -50.17608 | 2069 ft | 158 kts | 40° |
| 2026-05-07 20:28 | -29.87876 | -50.16743 | 2071 ft | 160 kts | 40° |
| 2026-05-07 20:28 | -29.87058 | -50.15873 | 2069 ft | 160 kts | 39° |
| 2026-05-07 20:28 | -29.86261 | -50.15012 | 2070 ft | 158 kts | 39° |
| 2026-05-07 20:28 | -29.85474 | -50.14126 | 2074 ft | 158 kts | 40° |
| 2026-05-07 20:29 | -29.84696 | -50.13249 | 2071 ft | 155 kts | 40° |
| 2026-05-07 20:29 | -29.83922 | -50.12383 | 2068 ft | 155 kts | 40° |
| 2026-05-07 20:29 | -29.83149 | -50.11522 | 2076 ft | 155 kts | 40° |
| 2026-05-07 20:29 | -29.82370 | -50.10646 | 2077 ft | 157 kts | 40° |
| 2026-05-07 20:30 | -29.81597 | -50.09756 | 2076 ft | 157 kts | 41° |
| 2026-05-07 20:30 | -29.80828 | -50.08864 | 2073 ft | 156 kts | 41° |
| 2026-05-07 20:30 | -29.80091 | -50.07952 | 2073 ft | 155 kts | 43° |
| 2026-05-07 20:30 | -29.79358 | -50.07045 | 2078 ft | 155 kts | 43° |
| 2026-05-07 20:31 | -29.78613 | -50.06133 | 2077 ft | 157 kts | 43° |
| 2026-05-07 20:31 | -29.77853 | -50.05224 | 2083 ft | 158 kts | 43° |
| 2026-05-07 20:31 | -29.77083 | -50.04305 | 2087 ft | 160 kts | 43° |
| 2026-05-07 20:31 | -29.76300 | -50.03386 | 2084 ft | 161 kts | 42° |
| 2026-05-07 20:32 | -29.75517 | -50.02470 | 2086 ft | 160 kts | 42° |
| 2026-05-07 20:32 | -29.74745 | -50.01555 | 2087 ft | 159 kts | 42° |
| 2026-05-07 20:32 | -29.73943 | -50.00681 | 2087 ft | 159 kts | 41° |
| 2026-05-07 20:32 | -29.73125 | -49.99822 | 2086 ft | 160 kts | 40° |
| 2026-05-07 20:33 | -29.72305 | -49.98946 | 2064 ft | 163 kts | 40° |
| 2026-05-07 20:33 | -29.71468 | -49.98030 | 1949 ft | 168 kts | 40° |
| 2026-05-07 20:33 | -29.70618 | -49.97113 | 1922 ft | 166 kts | 41° |
| 2026-05-07 20:33 | -29.69789 | -49.96212 | 1921 ft | 162 kts | 40° |
| 2026-05-07 20:34 | -29.68989 | -49.95325 | 1916 ft | 157 kts | 40° |
| 2026-05-07 20:34 | -29.68220 | -49.94455 | 1915 ft | 154 kts | 40° |
| 2026-05-07 20:34 | -29.67468 | -49.93594 | 1910 ft | 152 kts | 41° |
| 2026-05-07 20:34 | -29.66698 | -49.92746 | 1907 ft | 154 kts | 39° |
| 2026-05-07 20:35 | -29.65918 | -49.91913 | 1908 ft | 153 kts | 39° |
| 2026-05-07 20:35 | -29.65143 | -49.91082 | 1911 ft | 152 kts | 39° |
| 2026-05-07 20:35 | -29.64380 | -49.90248 | 1915 ft | 151 kts | 39° |
| 2026-05-07 20:35 | -29.63614 | -49.89420 | 1916 ft | 151 kts | 38° |
| 2026-05-07 20:36 | -29.62835 | -49.88603 | 1914 ft | 152 kts | 39° |
| 2026-05-07 20:36 | -29.62031 | -49.87791 | 1916 ft | 155 kts | 39° |
| 2026-05-07 20:36 | -29.61214 | -49.86978 | 1922 ft | 156 kts | 38° |
| 2026-05-07 20:36 | -29.60403 | -49.86170 | 1922 ft | 157 kts | 39° |
| 2026-05-07 20:37 | -29.59577 | -49.85356 | 1916 ft | 156 kts | 37° |
| 2026-05-07 20:37 | -29.58759 | -49.84535 | 1915 ft | 156 kts | 38° |
| 2026-05-07 20:37 | -29.57954 | -49.83704 | 1917 ft | 156 kts | 38° |
| 2026-05-07 20:37 | -29.57145 | -49.82875 | 1915 ft | 156 kts | 39° |
| 2026-05-07 20:38 | -29.56324 | -49.82063 | 1913 ft | 156 kts | 38° |
| 2026-05-07 20:38 | -29.55499 | -49.81252 | 1915 ft | 156 kts | 38° |
| 2026-05-07 20:38 | -29.54698 | -49.80418 | 1915 ft | 155 kts | 39° |
| 2026-05-07 20:38 | -29.53907 | -49.79577 | 1916 ft | 155 kts | 39° |
| 2026-05-07 20:39 | -29.53111 | -49.78739 | 1916 ft | 156 kts | 40° |
| 2026-05-07 20:39 | -29.52298 | -49.77906 | 1915 ft | 157 kts | 39° |
| 2026-05-07 20:39 | -29.51481 | -49.77065 | 1915 ft | 157 kts | 39° |
| 2026-05-07 20:39 | -29.50664 | -49.76222 | 1920 ft | 158 kts | 38° |
| 2026-05-07 20:40 | -29.49859 | -49.75373 | 1928 ft | 158 kts | 39° |
| 2026-05-07 20:40 | -29.49048 | -49.74520 | 1918 ft | 158 kts | 39° |
| 2026-05-07 20:40 | -29.48241 | -49.73665 | 1920 ft | 157 kts | 39° |
| 2026-05-07 20:40 | -29.47439 | -49.72818 | 1920 ft | 156 kts | 39° |
| 2026-05-07 20:41 | -29.46636 | -49.71991 | 1920 ft | 154 kts | 39° |
| 2026-05-07 20:41 | -29.45826 | -49.71209 | 1915 ft | 150 kts | 25° |
| 2026-05-07 20:41 | -29.44828 | -49.71167 | 1849 ft | 151 kts | 341° |
| 2026-05-07 20:41 | -29.44025 | -49.71989 | 1734 ft | 161 kts | 315° |
| 2026-05-07 20:42 | -29.43464 | -49.73111 | 1623 ft | 169 kts | 300° |
| 2026-05-07 20:42 | -29.43119 | -49.74421 | 1504 ft | 173 kts | 291° |
| 2026-05-07 20:42 | -29.42834 | -49.75757 | 1429 ft | 171 kts | 289° |
| 2026-05-07 20:42 | -29.42550 | -49.77057 | 1426 ft | 165 kts | 288° |
| 2026-05-07 20:43 | -29.42264 | -49.78324 | 1439 ft | 164 kts | 290° |
| 2026-05-07 20:43 | -29.41962 | -49.79579 | 1437 ft | 163 kts | 292° |
| 2026-05-07 20:43 | -29.41671 | -49.80847 | 1431 ft | 166 kts | 291° |
| 2026-05-07 20:43 | -29.41373 | -49.82127 | 1430 ft | 166 kts | 291° |
| 2026-05-07 20:44 | -29.41077 | -49.83396 | 1430 ft | 164 kts | 290° |
| 2026-05-07 20:44 | -29.40761 | -49.84649 | 1426 ft | 163 kts | 290° |
| 2026-05-07 20:44 | -29.40890 | -49.85914 | 1453 ft | 164 kts | 242° |
| 2026-05-07 20:44 | -29.41781 | -49.86777 | 1431 ft | 173 kts | 212° |
| 2026-05-07 20:45 | -29.42791 | -49.87526 | 1429 ft | 174 kts | 217° |
| 2026-05-07 20:45 | -29.43792 | -49.88346 | 1343 ft | 181 kts | 217° |
| 2026-05-07 20:45 | -29.44820 | -49.89192 | 1231 ft | 181 kts | 216° |
| 2026-05-07 20:45 | -29.45817 | -49.90054 | 1115 ft | 176 kts | 217° |
| 2026-05-07 20:46 | -29.46861 | -49.90720 | 960 ft | 170 kts | 186° |
| 2026-05-07 20:46 | -29.47900 | -49.90445 | 916 ft | 146 kts | 134° |
| 2026-05-07 20:46 | -29.48414 | -49.89553 | 919 ft | 124 kts | 95° |
| 2026-05-07 20:46 | -29.48181 | -49.88741 | 922 ft | 106 kts | 38° |
| 2026-05-07 20:47 | -29.47685 | -49.88122 | 919 ft | 105 kts | 53° |
| 2026-05-07 20:47 | -29.47315 | -49.87436 | 914 ft | 101 kts | 63° |
| 2026-05-07 20:47 | -29.47103 | -49.86723 | 913 ft | 88 kts | 64° |
| 2026-05-07 20:47 | -29.46887 | -49.86102 | 916 ft | 81 kts | 55° |
| 2026-05-07 20:48 | -29.46570 | -49.85577 | 913 ft | 80 kts | 46° |
| 2026-05-07 20:48 | -29.46162 | -49.85107 | 873 ft | 85 kts | 39° |
| 2026-05-07 20:48 | -29.45683 | -49.84690 | 831 ft | 87 kts | 35° |
| 2026-05-07 20:48 | -29.45193 | -49.84293 | 756 ft | 88 kts | 35° |
| 2026-05-07 20:49 | -29.44692 | -49.83878 | 667 ft | 91 kts | 35° |
| 2026-05-07 20:49 | -29.44175 | -49.83426 | 578 ft | 94 kts | 40° |
| 2026-05-07 20:49 | -29.43669 | -49.82947 | 510 ft | 99 kts | 34° |
| 2026-05-07 20:49 | -29.43134 | -49.82472 | 459 ft | 95 kts | 36° |
| 2026-05-07 20:50 | -29.42619 | -49.82020 | 272 ft | 96 kts | 35° |
| 2026-05-07 20:50 | -29.42102 | -49.81554 | 105 ft | 93 kts | 37° |
| 2026-05-07 20:50 | -29.41658 | -49.81154 | 33 ft | 67 kts | 38° |
| 2026-05-07 20:50 | -29.41454 | -49.80970 | 32 ft | 28 kts | 38° |
| 2026-05-07 20:51 | -29.41299 | -49.80830 | 35 ft | 27 kts | 38° |
| 2026-05-07 20:51 | -29.41264 | -49.80693 | 36 ft | 2 kts | 131° |
| 2026-05-07 20:51 | -29.41271 | -49.80684 | 36 ft | 8 kts | 131° |
| 2026-05-07 20:51 | -29.41325 | -49.80608 | 35 ft | 17 kts | 129° |
| 2026-05-07 20:52 | -29.41354 | -49.80541 | 36 ft | 1 kts | 44° |
| 2026-05-07 20:52 | -29.41351 | -49.80538 | 36 ft | 0 kts | 40° |